PWSweather.com
Personal Weather Stations
Station Observations
UCASTIV1
St Ives, St Ives, CAMBS PE27 6SJ

St IvesSt Ives, CAMBS PE27 6SJ

Lat: 52.34, Lon: -0.09

Elevation: 102

Station Type:

http://weather.stives-town.info/

Latest ConditionsUpdated 11:07:05 AM GMT Wednesday, Jan 17, 2018
Currently Today's Max Today's Min Today's Average
Temperature 45.9°F7.7°C 45.9°F7.7°C 39.2°F4.0°C 40.7°F4.8°C
Dew Point 32.4°F0.2°C 33.0°F0.6°C 28.2°F-2.1°C 30.5°F-0.8°C
Winds 4.9 mph WNW7.9 kmh WNW 6.3 mph S10.1 kmh S - 3.6 mph 5.8 kmh
Wind Gusts 4.9 mph7.9 kmh 8.1 mph13.0 kmh - -
Humidity 59% 73% 59% 67%
Pressure 29.32 in992.9 mb 29.32 in992.9 mb 29.00 in982.1 mb -
Hour Temp Dew Point Humidity Winds Wind Gusts Pressure Precip Precip Rate Daily Precip Total
11:07 AM 45.9°F7.7°C 32.4°F0.2°C 59% 4.9 mph WNW7.9 kmh WNW 4.9 mph7.9 kmh 29.32 in992.9 mb 0.00 in0.0 mm 0.00 in0.0 mm 0.00 in0.0 mm
10:37 AM 44.4°F6.9°C 32.6°F0.3°C 63% 4.0 mph W6.4 kmh W 5.4 mph8.7 kmh 29.32 in992.9 mb 0.00 in0.0 mm 0.00 in0.0 mm 0.00 in0.0 mm
10:07 AM 43.2°F6.2°C 33.0°F0.6°C 67% 3.1 mph NW5.0 kmh NW 5.8 mph9.3 kmh 29.29 in991.9 mb 0.00 in0.0 mm 0.00 in0.0 mm 0.00 in0.0 mm
09:37 AM 42.3°F5.7°C 32.5°F0.3°C 68% 3.6 mph WSW5.8 kmh WSW 4.9 mph7.9 kmh 29.29 in991.9 mb 0.00 in0.0 mm 0.00 in0.0 mm 0.00 in0.0 mm
09:07 AM 41.5°F5.3°C 31.8°F-0.1°C 68% 6.3 mph SW10.1 kmh SW 6.3 mph10.1 kmh 29.26 in990.9 mb 0.00 in0.0 mm 0.00 in0.0 mm 0.00 in0.0 mm
08:37 AM 41.0°F5.0°C 29.8°F-1.2°C 64% 2.7 mph WSW4.3 kmh WSW 3.1 mph5.0 kmh 29.23 in989.8 mb 0.00 in0.0 mm 0.00 in0.0 mm 0.00 in0.0 mm
08:07 AM 41.0°F5.0°C 29.4°F-1.4°C 63% 2.2 mph W3.5 kmh W 4.0 mph6.4 kmh 29.23 in989.8 mb 0.00 in0.0 mm 0.00 in0.0 mm 0.00 in0.0 mm
07:37 AM 41.5°F5.3°C 29.5°F-1.4°C 62% 3.1 mph WSW5.0 kmh WSW 5.8 mph9.3 kmh 29.21 in989.2 mb 0.00 in0.0 mm 0.00 in0.0 mm 0.00 in0.0 mm
07:07 AM 41.4°F5.2°C 30.1°F-1.1°C 64% 5.4 mph SW8.7 kmh SW 8.1 mph13.0 kmh 29.18 in988.1 mb 0.00 in0.0 mm 0.00 in0.0 mm 0.00 in0.0 mm
06:37 AM 40.3°F4.6°C 30.9°F-0.6°C 69% 2.2 mph WSW3.5 kmh WSW 5.8 mph9.3 kmh 29.18 in988.1 mb 0.00 in0.0 mm 0.00 in0.0 mm 0.00 in0.0 mm
06:07 AM 39.9°F4.4°C 30.9°F-0.6°C 70% 4.0 mph WSW6.4 kmh WSW 5.4 mph8.7 kmh 29.15 in987.1 mb 0.00 in0.0 mm 0.00 in0.0 mm 0.00 in0.0 mm
05:37 AM 39.7°F4.3°C 30.8°F-0.7°C 70% 5.8 mph NW9.3 kmh NW 5.8 mph9.3 kmh 29.12 in986.1 mb 0.00 in0.0 mm 0.00 in0.0 mm 0.00 in0.0 mm
05:07 AM 39.7°F4.3°C 30.1°F-1.1°C 68% 2.7 mph SW4.3 kmh SW 4.0 mph6.4 kmh 29.09 in985.1 mb 0.00 in0.0 mm 0.00 in0.0 mm 0.00 in0.0 mm
04:37 AM 39.4°F4.1°C 29.7°F-1.3°C 68% 2.7 mph WSW4.3 kmh WSW 6.3 mph10.1 kmh 29.09 in985.1 mb 0.00 in0.0 mm 0.00 in0.0 mm 0.00 in0.0 mm
04:07 AM 39.2°F4.0°C 29.2°F-1.6°C 67% 3.6 mph WSW5.8 kmh WSW 7.2 mph11.6 kmh 29.09 in985.1 mb 0.00 in0.0 mm 0.00 in0.0 mm 0.00 in0.0 mm
03:37 AM 39.4°F4.1°C 28.2°F-2.1°C 64% 3.1 mph W5.0 kmh W 4.0 mph6.4 kmh 29.06 in984.1 mb 0.00 in0.0 mm 0.00 in0.0 mm 0.00 in0.0 mm
03:07 AM 39.4°F4.1°C 28.2°F-2.1°C 64% 3.1 mph WSW5.0 kmh WSW 4.0 mph6.4 kmh 29.06 in984.1 mb 0.00 in0.0 mm 0.00 in0.0 mm 0.00 in0.0 mm
02:37 AM 39.4°F4.1°C 29.0°F-1.7°C 66% 2.2 mph W3.5 kmh W 3.6 mph5.8 kmh 29.03 in983.1 mb 0.00 in0.0 mm 0.00 in0.0 mm 0.00 in0.0 mm
02:07 AM 39.4°F4.1°C 30.1°F-1.1°C 69% 2.7 mph WSW4.3 kmh WSW 4.5 mph7.2 kmh 29.03 in983.1 mb 0.00 in0.0 mm 0.00 in0.0 mm 0.00 in0.0 mm
01:37 AM 39.6°F4.2°C 30.6°F-0.8°C 70% 2.7 mph SW4.3 kmh SW 3.6 mph5.8 kmh 29.03 in983.1 mb 0.00 in0.0 mm 0.00 in0.0 mm 0.00 in0.0 mm
01:07 AM 39.4°F4.1°C 30.8°F-0.7°C 71% 3.6 mph WSW5.8 kmh WSW 5.8 mph9.3 kmh 29.00 in982.1 mb 0.00 in0.0 mm 0.00 in0.0 mm 0.00 in0.0 mm
12:37 AM 39.4°F4.1°C 31.5°F-0.3°C 73% 6.3 mph S10.1 kmh S 6.3 mph10.1 kmh 29.00 in982.1 mb 0.00 in0.0 mm 0.00 in0.0 mm 0.00 in0.0 mm
12:07 AM 39.6°F4.2°C 31.6°F-0.2°C 73% 3.6 mph SW5.8 kmh SW 6.7 mph10.8 kmh 29.00 in982.1 mb 0.00 in0.0 mm 0.00 in0.0 mm 0.00 in0.0 mm